Sea Shuttle — GDCX — position and weather

sailwx.info

Track history (hours):
 
Tides and Currents Weather Stations Pressure Air Temp Water Temp Dewpoint Dewpoint Depression Visibility Wind Speed Wind Dir Waves Ship Positions

Sea Shuttle

Last reported at 2017-Sep-28 15:34 UTC. Time now 2017-Oct-18 11:30 UTC.
Position N 39°34' E 002°39'.
Warning: this ship's position is 19 days out of date.

Length 28 m; draft 3.5 m.

Type: Sailing vessel. MMSI: 232185000.

Date/timePositionNaut miles runAvg speedWind from/ knotsBaromVisibWave heightAir tempDewpointWater temp
2017-Sep-28 15:34N 39°34' E 002°39'0 0.0
2017-Sep-28 15:31N 39°34' E 002°39'0 0.4
2017-Sep-28 15:00N 39°34' E 002°38'3 5.5
2017-Sep-28 14:30N 39°32' E 002°36'1 1.7
2017-Sep-28 14:00N 39°32' E 002°35'0 0.0
2017-Sep-28 13:31N 39°32' E 002°35'2 4.5
2017-Sep-28 13:00N 39°30' E 002°33'4 8.9
2017-Sep-28 12:30N 39°26' E 002°30'5 9.3
2017-Sep-28 11:59N 39°25' E 002°24'19 8.9
2017-Sep-28 09:53N 39°17' E 002°02'4 9.2
2017-Sep-28 09:30N 39°16' E 001°58'5 9.4
2017-Sep-28 09:00N 39°14' E 001°52'5 9.4
2017-Sep-28 08:30N 39°13' E 001°46'5 9.5
2017-Sep-28 08:00N 39°11' E 001°41'5 9.6
2017-Sep-28 07:29N 39°09' E 001°35'5 9.7
2017-Sep-28 07:00N 39°07' E 001°29'3 0.1
2017-Sep-27 10:05N 39°06' E 001°26'0 6.0
2017-Sep-27 10:00N 39°06' E 001°26'17 0.7
2017-Sep-26 10:52N 38°50' E 001°18'4 7.2
2017-Sep-26 10:17N 38°48' E 001°23'1 4.9
2017-Sep-26 09:59N 38°49' E 001°25'3 6.6
2017-Sep-26 09:30N 38°52' E 001°26'3 5.9
2017-Sep-26 09:00N 38°55' E 001°27'0 0.3
2017-Sep-26 08:28N 38°55' E 001°27'0 0.0
2017-Sep-26 07:59N 38°55' E 001°27'0 0.0
2017-Sep-26 07:29N 38°55' E 001°27'0 0.2
2017-Sep-26 06:59N 38°55' E 001°27'2 3.2
2017-Sep-26 06:30N 38°53' E 001°27'3 6.1
2017-Sep-26 06:00N 38°50' E 001°27'5 0.8
2017-Sep-26 00:08N 38°46' E 001°26'0 0.1
2017-Sep-25 23:58N 38°46' E 001°26'0 0.0
2017-Sep-25 23:24N 38°46' E 001°26'0 0.0
2017-Sep-25 22:58N 38°46' E 001°26'0 0.0
2017-Sep-25 22:27N 38°46' E 001°26'0 0.0
2017-Sep-25 22:00N 38°46' E 001°26'0 0.0
2017-Sep-25 21:30N 38°46' E 001°26'0 0.0
2017-Sep-25 20:59N 38°46' E 001°26'0 0.0
2017-Sep-25 20:30N 38°46' E 001°26'0 0.0
2017-Sep-25 20:00N 38°46' E 001°26'0 0.0
2017-Sep-25 19:30N 38°46' E 001°26'0 0.0
2017-Sep-25 18:59N 38°46' E 001°26'0 0.0
2017-Sep-25 18:30N 38°46' E 001°26'0 0.0
2017-Sep-25 17:59N 38°46' E 001°26'0 0.2
2017-Sep-25 17:18N 38°46' E 001°26'0 0.1
2017-Sep-25 16:59N 38°46' E 001°26'0 0.0
2017-Sep-25 16:30N 38°46' E 001°26'0 0.0
2017-Sep-25 15:59N 38°46' E 001°26'0 0.0
2017-Sep-25 15:28N 38°46' E 001°26'0 0.0
2017-Sep-25 15:00N 38°46' E 001°26'0 0.0
2017-Sep-25 14:26N 38°46' E 001°26'0 0.0
2017-Sep-25 13:31N 38°46' E 001°26'0 0.3
2017-Sep-25 13:30N 38°46' E 001°26'0 0.0
2017-Sep-25 13:00N 38°46' E 001°26'0 0.0
2017-Sep-25 12:30N 38°46' E 001°26'0 0.0
2017-Sep-25 12:00N 38°46' E 001°26'0 0.1
2017-Sep-25 11:30N 38°46' E 001°26'3 5.0
2017-Sep-25 11:00N 38°48' E 001°27'4 7.7
2017-Sep-25 10:30N 38°51' E 001°30'4 7.6
2017-Sep-25 10:00N 38°55' E 001°32'4 7.2
2017-Sep-25 09:30N 38°58' E 001°35'4 7.2
2017-Sep-25 09:00N 39°01' E 001°37'2 3.4
2017-Sep-25 08:30N 39°02' E 001°37'0 0.0
2017-Sep-25 07:51N 39°02' E 001°37'0 0.0
2017-Sep-25 07:17N 39°02' E 001°37'0 0.0
2017-Sep-25 06:56N 39°02' E 001°37'0 0.0
2017-Sep-25 06:30N 39°02' E 001°37'0 0.0
2017-Sep-25 06:00N 39°02' E 001°37'0 0.0
2017-Sep-25 05:30N 39°02' E 001°37'0 0.0
2017-Sep-25 05:00N 39°02' E 001°37'0 0.0
2017-Sep-25 04:26N 39°02' E 001°37'0 0.0
2017-Sep-25 03:56N 39°02' E 001°37'0 0.0
2017-Sep-25 03:16N 39°02' E 001°37'0 0.0
2017-Sep-25 02:56N 39°02' E 001°37'0 0.0
2017-Sep-25 02:28N 39°02' E 001°37'0 0.0
2017-Sep-25 02:00N 39°02' E 001°37'0 0.0
2017-Sep-25 01:30N 39°02' E 001°37'0 0.0
2017-Sep-25 00:59N 39°02' E 001°37'0 0.0
2017-Sep-25 00:30N 39°02' E 001°37'0 0.0
2017-Sep-25 00:00N 39°02' E 001°37'0 0.0
2017-Sep-24 23:30N 39°02' E 001°37'0 0.0
2017-Sep-24 23:00N 39°02' E 001°37'0 0.0
2017-Sep-24 22:30N 39°02' E 001°37'0 0.0
2017-Sep-24 22:00N 39°02' E 001°37'0 0.0
2017-Sep-24 21:30N 39°02' E 001°37'0 0.0
2017-Sep-24 20:59N 39°02' E 001°37'0 0.0
2017-Sep-24 20:30N 39°02' E 001°37'0 0.0
2017-Sep-24 20:00N 39°02' E 001°37'0 0.0
2017-Sep-24 19:31N 39°02' E 001°37'0 0.0
2017-Sep-24 19:00N 39°02' E 001°37'1 1.7
2017-Sep-24 18:30N 39°03' E 001°38'4 8.6
2017-Sep-24 18:00N 39°04' E 001°43'4 8.8
2017-Sep-24 17:29N 39°06' E 001°48'4 8.8
2017-Sep-24 17:00N 39°08' E 001°53'4 8.6
2017-Sep-24 16:30N 39°11' E 001°58'4 8.9
2017-Sep-24 16:00N 39°13' E 002°03'4 8.4
2017-Sep-24 15:30N 39°15' E 002°07'4 8.4
2017-Sep-24 15:00N 39°17' E 002°12'4 8.6
2017-Sep-24 14:30N 39°20' E 002°16'4 8.4
2017-Sep-24 14:00N 39°22' E 002°21'4 8.5
2017-Sep-24 13:30N 39°24' E 002°26'4 8.7
2017-Sep-24 13:00N 39°26' E 002°30'4 8.6
2017-Sep-24 12:30N 39°29' E 002°35'4 8.4
2017-Sep-24 12:00N 39°33' E 002°38'1 2.7
2017-Sep-24 11:28N 39°34' E 002°39'0 0.0
2017-Sep-24 10:58N 39°34' E 002°39'0 0.0
2017-Sep-24 10:28N 39°34' E 002°39'0 0.0
2017-Sep-24 09:58N 39°34' E 002°39'  
2017-Sep-21 11:26N 39°34' E 002°39'0 0.0
2017-Sep-21 10:58N 39°34' E 002°39'0 0.0
2017-Sep-21 10:28N 39°34' E 002°39'0 0.0
2017-Sep-21 09:58N 39°34' E 002°39'0 0.0
2017-Sep-21 09:28N 39°34' E 002°39'0 0.0
2017-Sep-21 08:52N 39°34' E 002°39'0 0.0
2017-Sep-21 08:28N 39°34' E 002°39'0 0.0
2017-Sep-21 07:58N 39°34' E 002°39'0 0.0
2017-Sep-21 07:10N 39°34' E 002°39'0 0.0
2017-Sep-21 06:58N 39°34' E 002°39'0 0.0
2017-Sep-21 06:25N 39°34' E 002°39'0 0.0
2017-Sep-21 05:58N 39°34' E 002°39'0 0.0
2017-Sep-21 05:28N 39°34' E 002°39'0 0.0
2017-Sep-21 04:58N 39°34' E 002°39'0 0.0
2017-Sep-21 04:28N 39°34' E 002°39'0 0.0
2017-Sep-21 03:58N 39°34' E 002°39'0 0.0
2017-Sep-21 03:28N 39°34' E 002°39'0 0.0
2017-Sep-21 02:58N 39°34' E 002°39'0 0.0
2017-Sep-21 02:28N 39°34' E 002°39'0 0.0
2017-Sep-21 01:58N 39°34' E 002°39'0 0.0
2017-Sep-21 01:28N 39°34' E 002°39'0 0.0
2017-Sep-21 00:58N 39°34' E 002°39'0 0.0
2017-Sep-21 00:28N 39°34' E 002°39'0 0.0
2017-Sep-20 23:58N 39°34' E 002°39'0 0.0
2017-Sep-20 23:30N 39°34' E 002°39'0 0.0
2017-Sep-20 23:00N 39°34' E 002°39'0 0.0
2017-Sep-20 22:30N 39°34' E 002°39'0 0.0
2017-Sep-20 22:00N 39°34' E 002°39'0 0.0
2017-Sep-20 21:30N 39°34' E 002°39'0 0.0
2017-Sep-20 21:00N 39°34' E 002°39'0 0.0
2017-Sep-20 20:30N 39°34' E 002°39'0 0.0
2017-Sep-20 20:00N 39°34' E 002°39'0 0.0
2017-Sep-20 19:30N 39°34' E 002°39'0 0.0
2017-Sep-20 19:00N 39°34' E 002°39'0 0.0
2017-Sep-20 18:30N 39°34' E 002°39'0 0.0
2017-Sep-20 18:00N 39°34' E 002°39'0 0.0
2017-Sep-20 17:30N 39°34' E 002°39'0 0.0
2017-Sep-20 17:00N 39°34' E 002°39'0 0.0
2017-Sep-20 16:30N 39°34' E 002°39'0 0.0
2017-Sep-20 16:00N 39°34' E 002°39'0 0.0
2017-Sep-20 15:30N 39°34' E 002°39'0 0.0
2017-Sep-20 15:00N 39°34' E 002°39'0 0.0
2017-Sep-20 13:57N 39°34' E 002°39'0 0.0
2017-Sep-20 13:30N 39°34' E 002°39'0 0.0
2017-Sep-20 13:00N 39°34' E 002°39'0 0.0
2017-Sep-20 12:30N 39°34' E 002°39'0 0.0
2017-Sep-20 12:00N 39°34' E 002°39'0 0.0
2017-Sep-20 11:30N 39°34' E 002°39'0 0.0
2017-Sep-20 11:00N 39°34' E 002°39'0 0.0
2017-Sep-20 10:30N 39°34' E 002°39'0 0.0
2017-Sep-20 10:00N 39°34' E 002°39'0 0.0
2017-Sep-20 09:30N 39°34' E 002°39'0 0.1
2017-Sep-20 09:00N 39°34' E 002°39'2 3.8
2017-Sep-20 08:30N 39°32' E 002°40'0 0.4
2017-Sep-20 08:00N 39°32' E 002°39'2 4.0
2017-Sep-20 07:30N 39°34' E 002°39'  
Track history (hours):
 
Tides and Currents Weather Stations Pressure Air Temp Water Temp Dewpoint Dewpoint Depression Visibility Wind Speed Wind Dir Waves Ship Positions

Sea Shuttle

Last reported at 2017-Sep-28 15:34 UTC. Time now 2017-Oct-18 11:30 UTC.
Position N 39°34' E 002°39'.
Warning: this ship's position is 19 days out of date.

Length 28 m; draft 3.5 m.

Type: Sailing vessel. MMSI: 232185000.

Date/timePositionNaut miles runAvg speedWind from/ knotsBaromVisibWave heightAir tempDewpointWater temp
2017-Sep-28 15:34N 39°34' E 002°39'0 0.0
2017-Sep-28 15:31N 39°34' E 002°39'0 0.4
2017-Sep-28 15:00N 39°34' E 002°38'3 5.5
2017-Sep-28 14:30N 39°32' E 002°36'1 1.7
2017-Sep-28 14:00N 39°32' E 002°35'0 0.0
2017-Sep-28 13:31N 39°32' E 002°35'2 4.5
2017-Sep-28 13:00N 39°30' E 002°33'4 8.9
2017-Sep-28 12:30N 39°26' E 002°30'5 9.3
2017-Sep-28 11:59N 39°25' E 002°24'19 8.9
2017-Sep-28 09:53N 39°17' E 002°02'4 9.2
2017-Sep-28 09:30N 39°16' E 001°58'5 9.4
2017-Sep-28 09:00N 39°14' E 001°52'5 9.4
2017-Sep-28 08:30N 39°13' E 001°46'5 9.5
2017-Sep-28 08:00N 39°11' E 001°41'5 9.6
2017-Sep-28 07:29N 39°09' E 001°35'5 9.7
2017-Sep-28 07:00N 39°07' E 001°29'3 0.1
2017-Sep-27 10:05N 39°06' E 001°26'0 6.0
2017-Sep-27 10:00N 39°06' E 001°26'17 0.7
2017-Sep-26 10:52N 38°50' E 001°18'4 7.2
2017-Sep-26 10:17N 38°48' E 001°23'1 4.9
2017-Sep-26 09:59N 38°49' E 001°25'3 6.6
2017-Sep-26 09:30N 38°52' E 001°26'3 5.9
2017-Sep-26 09:00N 38°55' E 001°27'0 0.3
2017-Sep-26 08:28N 38°55' E 001°27'0 0.0
2017-Sep-26 07:59N 38°55' E 001°27'0 0.0
2017-Sep-26 07:29N 38°55' E 001°27'0 0.2
2017-Sep-26 06:59N 38°55' E 001°27'2 3.2
2017-Sep-26 06:30N 38°53' E 001°27'3 6.1
2017-Sep-26 06:00N 38°50' E 001°27'5 0.8
2017-Sep-26 00:08N 38°46' E 001°26'0 0.1
2017-Sep-25 23:58N 38°46' E 001°26'0 0.0
2017-Sep-25 23:24N 38°46' E 001°26'0 0.0
2017-Sep-25 22:58N 38°46' E 001°26'0 0.0
2017-Sep-25 22:27N 38°46' E 001°26'0 0.0
2017-Sep-25 22:00N 38°46' E 001°26'0 0.0
2017-Sep-25 21:30N 38°46' E 001°26'0 0.0
2017-Sep-25 20:59N 38°46' E 001°26'0 0.0
2017-Sep-25 20:30N 38°46' E 001°26'0 0.0
2017-Sep-25 20:00N 38°46' E 001°26'0 0.0
2017-Sep-25 19:30N 38°46' E 001°26'0 0.0
2017-Sep-25 18:59N 38°46' E 001°26'0 0.0
2017-Sep-25 18:30N 38°46' E 001°26'0 0.0
2017-Sep-25 17:59N 38°46' E 001°26'0 0.2
2017-Sep-25 17:18N 38°46' E 001°26'0 0.1
2017-Sep-25 16:59N 38°46' E 001°26'0 0.0
2017-Sep-25 16:30N 38°46' E 001°26'0 0.0
2017-Sep-25 15:59N 38°46' E 001°26'0 0.0
2017-Sep-25 15:28N 38°46' E 001°26'0 0.0
2017-Sep-25 15:00N 38°46' E 001°26'0 0.0
2017-Sep-25 14:26N 38°46' E 001°26'0 0.0
2017-Sep-25 13:31N 38°46' E 001°26'0 0.3
2017-Sep-25 13:30N 38°46' E 001°26'0 0.0
2017-Sep-25 13:00N 38°46' E 001°26'0 0.0
2017-Sep-25 12:30N 38°46' E 001°26'0 0.0
2017-Sep-25 12:00N 38°46' E 001°26'0 0.1
2017-Sep-25 11:30N 38°46' E 001°26'3 5.0
2017-Sep-25 11:00N 38°48' E 001°27'4 7.7
2017-Sep-25 10:30N 38°51' E 001°30'4 7.6
2017-Sep-25 10:00N 38°55' E 001°32'4 7.2
2017-Sep-25 09:30N 38°58' E 001°35'4 7.2
2017-Sep-25 09:00N 39°01' E 001°37'2 3.4
2017-Sep-25 08:30N 39°02' E 001°37'0 0.0
2017-Sep-25 07:51N 39°02' E 001°37'0 0.0
2017-Sep-25 07:17N 39°02' E 001°37'0 0.0
2017-Sep-25 06:56N 39°02' E 001°37'0 0.0
2017-Sep-25 06:30N 39°02' E 001°37'0 0.0
2017-Sep-25 06:00N 39°02' E 001°37'0 0.0
2017-Sep-25 05:30N 39°02' E 001°37'0 0.0
2017-Sep-25 05:00N 39°02' E 001°37'0 0.0
2017-Sep-25 04:26N 39°02' E 001°37'0 0.0
2017-Sep-25 03:56N 39°02' E 001°37'0 0.0
2017-Sep-25 03:16N 39°02' E 001°37'0 0.0
2017-Sep-25 02:56N 39°02' E 001°37'0 0.0
2017-Sep-25 02:28N 39°02' E 001°37'0 0.0
2017-Sep-25 02:00N 39°02' E 001°37'0 0.0
2017-Sep-25 01:30N 39°02' E 001°37'0 0.0
2017-Sep-25 00:59N 39°02' E 001°37'0 0.0
2017-Sep-25 00:30N 39°02' E 001°37'0 0.0
2017-Sep-25 00:00N 39°02' E 001°37'0 0.0
2017-Sep-24 23:30N 39°02' E 001°37'0 0.0
2017-Sep-24 23:00N 39°02' E 001°37'0 0.0
2017-Sep-24 22:30N 39°02' E 001°37'0 0.0
2017-Sep-24 22:00N 39°02' E 001°37'0 0.0
2017-Sep-24 21:30N 39°02' E 001°37'0 0.0
2017-Sep-24 20:59N 39°02' E 001°37'0 0.0
2017-Sep-24 20:30N 39°02' E 001°37'0 0.0
2017-Sep-24 20:00N 39°02' E 001°37'0 0.0
2017-Sep-24 19:31N 39°02' E 001°37'0 0.0
2017-Sep-24 19:00N 39°02' E 001°37'1 1.7
2017-Sep-24 18:30N 39°03' E 001°38'4 8.6
2017-Sep-24 18:00N 39°04' E 001°43'4 8.8
2017-Sep-24 17:29N 39°06' E 001°48'4 8.8
2017-Sep-24 17:00N 39°08' E 001°53'4 8.6
2017-Sep-24 16:30N 39°11' E 001°58'4 8.9
2017-Sep-24 16:00N 39°13' E 002°03'4 8.4
2017-Sep-24 15:30N 39°15' E 002°07'4 8.4
2017-Sep-24 15:00N 39°17' E 002°12'4 8.6
2017-Sep-24 14:30N 39°20' E 002°16'4 8.4
2017-Sep-24 14:00N 39°22' E 002°21'4 8.5
2017-Sep-24 13:30N 39°24' E 002°26'4 8.7
2017-Sep-24 13:00N 39°26' E 002°30'4 8.6
2017-Sep-24 12:30N 39°29' E 002°35'4 8.4
2017-Sep-24 12:00N 39°33' E 002°38'1 2.7
2017-Sep-24 11:28N 39°34' E 002°39'0 0.0
2017-Sep-24 10:58N 39°34' E 002°39'0 0.0
2017-Sep-24 10:28N 39°34' E 002°39'0 0.0
2017-Sep-24 09:58N 39°34' E 002°39'  
2017-Sep-21 11:26N 39°34' E 002°39'0 0.0
2017-Sep-21 10:58N 39°34' E 002°39'0 0.0
2017-Sep-21 10:28N 39°34' E 002°39'0 0.0
2017-Sep-21 09:58N 39°34' E 002°39'0 0.0
2017-Sep-21 09:28N 39°34' E 002°39'0 0.0
2017-Sep-21 08:52N 39°34' E 002°39'0 0.0
2017-Sep-21 08:28N 39°34' E 002°39'0 0.0
2017-Sep-21 07:58N 39°34' E 002°39'0 0.0
2017-Sep-21 07:10N 39°34' E 002°39'0 0.0
2017-Sep-21 06:58N 39°34' E 002°39'0 0.0
2017-Sep-21 06:25N 39°34' E 002°39'0 0.0
2017-Sep-21 05:58N 39°34' E 002°39'0 0.0
2017-Sep-21 05:28N 39°34' E 002°39'0 0.0
2017-Sep-21 04:58N 39°34' E 002°39'0 0.0
2017-Sep-21 04:28N 39°34' E 002°39'0 0.0
2017-Sep-21 03:58N 39°34' E 002°39'0 0.0
2017-Sep-21 03:28N 39°34' E 002°39'0 0.0
2017-Sep-21 02:58N 39°34' E 002°39'0 0.0
2017-Sep-21 02:28N 39°34' E 002°39'0 0.0
2017-Sep-21 01:58N 39°34' E 002°39'0 0.0
2017-Sep-21 01:28N 39°34' E 002°39'0 0.0
2017-Sep-21 00:58N 39°34' E 002°39'0 0.0
2017-Sep-21 00:28N 39°34' E 002°39'0 0.0
2017-Sep-20 23:58N 39°34' E 002°39'0 0.0
2017-Sep-20 23:30N 39°34' E 002°39'0 0.0
2017-Sep-20 23:00N 39°34' E 002°39'0 0.0
2017-Sep-20 22:30N 39°34' E 002°39'0 0.0
2017-Sep-20 22:00N 39°34' E 002°39'0 0.0
2017-Sep-20 21:30N 39°34' E 002°39'0 0.0
2017-Sep-20 21:00N 39°34' E 002°39'0 0.0
2017-Sep-20 20:30N 39°34' E 002°39'0 0.0
2017-Sep-20 20:00N 39°34' E 002°39'0 0.0
2017-Sep-20 19:30N 39°34' E 002°39'0 0.0
2017-Sep-20 19:00N 39°34' E 002°39'0 0.0
2017-Sep-20 18:30N 39°34' E 002°39'0 0.0
2017-Sep-20 18:00N 39°34' E 002°39'0 0.0
2017-Sep-20 17:30N 39°34' E 002°39'0 0.0
2017-Sep-20 17:00N 39°34' E 002°39'0 0.0
2017-Sep-20 16:30N 39°34' E 002°39'0 0.0
2017-Sep-20 16:00N 39°34' E 002°39'0 0.0
2017-Sep-20 15:30N 39°34' E 002°39'0 0.0
2017-Sep-20 15:00N 39°34' E 002°39'0 0.0
2017-Sep-20 13:57N 39°34' E 002°39'0 0.0
2017-Sep-20 13:30N 39°34' E 002°39'0 0.0
2017-Sep-20 13:00N 39°34' E 002°39'0 0.0
2017-Sep-20 12:30N 39°34' E 002°39'0 0.0
2017-Sep-20 12:00N 39°34' E 002°39'0 0.0
2017-Sep-20 11:30N 39°34' E 002°39'0 0.0
2017-Sep-20 11:00N 39°34' E 002°39'0 0.0
2017-Sep-20 10:30N 39°34' E 002°39'0 0.0
2017-Sep-20 10:00N 39°34' E 002°39'0 0.0
2017-Sep-20 09:30N 39°34' E 002°39'0 0.1
2017-Sep-20 09:00N 39°34' E 002°39'2 3.8
2017-Sep-20 08:30N 39°32' E 002°40'0 0.4
2017-Sep-20 08:00N 39°32' E 002°39'2 4.0
2017-Sep-20 07:30N 39°34' E 002°39'  

Dump ship's entire track history